WetterOnline ( https://www.wetteronline.de )

Wetter aktuell Borna

Aktuelles Wetter: Leipzig-Holzhausen (138m)

6-stündlich | Neueste Meldungen
Ortszeit Temperatur Wetter
So, 27.11. 13:00 7.6° C bewölkt
So, 27.11. 7:00 1.5° C wolkig
So, 27.11. 1:00 2.3° C wolkenlos
Sa, 26.11. 19:00 5.9° C fast wolkenlos
Sa, 26.11. 13:00 9.1° C bedeckt
Sa, 26.11. 7:00 6.5° C wolkig
Sa, 26.11. 1:00 5.8° C bewölkt
Fr, 25.11. 19:00 7.3° C bedeckt
Ortszeit Temperatur Wetter
So, 27.11. 15:00 8.1° C wolkig
So, 27.11. 14:50 8.1° C wolkig
So, 27.11. 14:40 7.9° C bewölkt
So, 27.11. 14:30 8.0° C leicht bewölkt
So, 27.11. 14:20 8.0° C leicht bewölkt
So, 27.11. 14:10 7.8° C wolkig
So, 27.11. 14:00 8.0° C wolkig
So, 27.11. 13:30 7.8° C bedeckt
So, 27.11. 13:00 7.6° C bewölkt
So, 27.11. 12:30 6.6° C wolkig
So, 27.11. 12:00 6.4° C wolkig
Ortszeit Relative Feuchte Sichtweite
So, 27.11. 13:00 72% 45 km
So, 27.11. 7:00 96% 13 km
So, 27.11. 1:00 99% 9 km
Sa, 26.11. 19:00 91% 24 km
Sa, 26.11. 13:00 80% 30 km
Sa, 26.11. 7:00 95% 13 km
Sa, 26.11. 1:00 95% 16 km
Fr, 25.11. 19:00 95% 30 km
Ortszeit Relative Feuchte Sichtweite
So, 27.11. 15:00 71% 40 km
So, 27.11. 14:50 71% -
So, 27.11. 14:40 70% -
So, 27.11. 14:30 71% 45 km
So, 27.11. 14:20 71% -
So, 27.11. 14:10 71% -
So, 27.11. 14:00 71% 35 km
So, 27.11. 13:30 72% 35 km
So, 27.11. 13:00 72% 45 km
So, 27.11. 12:30 75% 40 km
So, 27.11. 12:00 73% 30 km
Ortszeit Niederschlagsmenge Niederschlagsart
So, 27.11. 13:00 0.0 l/m2 in 6 Std. -
So, 27.11. 7:00 0.0 l/m2 in 12 Std. -
So, 27.11. 1:00 0.0 l/m2 in 6 Std. -
Sa, 26.11. 19:00 0.0 l/m2 in 12 Std. -
Sa, 26.11. 13:00 0.0 l/m2 in 6 Std. -
Sa, 26.11. 7:00 0.7 l/m2 in 12 Std. Regen
Sa, 26.11. 1:00 0.2 l/m2 in 6 Std. Regen
Fr, 25.11. 19:00 2 l/m2 in 12 Std. Regen
Ortszeit Niederschlagsmenge Niederschlagsart
So, 27.11. 15:00 0.0 l/m2 in 1 Std. -
So, 27.11. 14:50 keine Meldung -
So, 27.11. 14:40 keine Meldung -
So, 27.11. 14:30 0.0 l/m2 in 1 Std. -
So, 27.11. 14:20 keine Meldung -
So, 27.11. 14:10 keine Meldung -
So, 27.11. 14:00 0.0 l/m2 in 1 Std. -
So, 27.11. 13:30 0.0 l/m2 in 1 Std. -
So, 27.11. 13:00 0.0 l/m2 in 1 Std. -
So, 27.11. 12:30 0.0 l/m2 in 1 Std. -
So, 27.11. 12:00 0.0 l/m2 in 1 Std. -
Ortszeit Stärke Spitze Richtung
km/h Bft. km/h Grad Sektor
So, 27.11. 13:00 7 2 22 180° S
So, 27.11. 7:00 7 2 14 190° S
So, 27.11. 1:00 7 2 11 190° S
Sa, 26.11. 19:00 4 1 18 250° W
Sa, 26.11. 13:00 7 2 25 270° W
Sa, 26.11. 7:00 7 2 18 270° W
Sa, 26.11. 1:00 7 2 19 250° W
Fr, 25.11. 19:00 6 1 19 260° W
Ortszeit Stärke Spitze Richtung
km/h Bft. km/h Grad Sektor
So, 27.11. 15:00 7 2 25 170° S
So, 27.11. 14:50 7 2 - 170° S
So, 27.11. 14:40 11 2 - 180° S
So, 27.11. 14:30 9 2 24 180° S
So, 27.11. 14:20 9 2 - 180° S
So, 27.11. 14:10 11 2 - 170° S
So, 27.11. 14:00 13 3 26 180° S
So, 27.11. 13:30 13 3 19 160° S
So, 27.11. 13:00 7 2 19 180° S
So, 27.11. 12:30 9 2 19 190° S
So, 27.11. 12:00 11 2 22 190° S
Ortszeit Untergrenze Bedeckung Gattung
total tief tief mittel hoch
So, 27.11. 13:00 6600 m 8/8 7/8 - - -
So, 27.11. 7:00 10500 m 8/8 0/8 - - -
So, 27.11. 1:00 - 0/8 0/8 - - -
Sa, 26.11. 19:00 1110 m 1/8 1/8 - - -
Sa, 26.11. 13:00 1050 m 8/8 8/8 - - -
Sa, 26.11. 7:00 570 m 6/8 6/8 - - -
Sa, 26.11. 1:00 600 m 7/8 7/8 - - -
Fr, 25.11. 19:00 1050 m 8/8 8/8 - - -
Ortszeit Bedeckungsgrad in Achtel und Wolkenuntergrenze
So, 27.11. 15:00 3(6600m) 7(9000m)
So, 27.11. 14:50 3(6600m) 7(9000m)
So, 27.11. 14:40 7
So, 27.11. 14:30 2(6600m) 4(9000m) 5(9000m)
So, 27.11. 14:20 2(6600m) 4(9000m) 5(9000m)
So, 27.11. 14:10 5
So, 27.11. 14:00 4(6300m) 6(8100m) 7(9000m)
So, 27.11. 13:30 7(6300m) 8(6900m)
So, 27.11. 13:00 7(6600m) 8(7500m)
So, 27.11. 12:30 3(7500m) 7(10500m)
So, 27.11. 12:00 7(10500m)
Ortszeit Luftdruck NN (hPa) Tendenz (hPa in 3 Std.)
So, 27.11. 13:00 1026 - 1,5
So, 27.11. 7:00 1029 - 0,5
So, 27.11. 1:00 1031 0,0
Sa, 26.11. 19:00 1031 + 0,7
Sa, 26.11. 13:00 1030 + 0,7
Sa, 26.11. 7:00 1027 + 2,1
Sa, 26.11. 1:00 1024 + 2,0
Fr, 25.11. 19:00 1019 + 1,4
Ortszeit Luftdruck NN (hPa) Tendenz (hPa in 3 Std.)
So, 27.11. 15:00 1025 - 2,3
So, 27.11. 14:50 1025 keine Meldung
So, 27.11. 14:40 1025 keine Meldung
So, 27.11. 14:30 1025 - 2,3
So, 27.11. 14:20 1025 keine Meldung
So, 27.11. 14:10 1025 keine Meldung
So, 27.11. 14:00 1025 - 2,4
So, 27.11. 13:30 1026 - 1,8
So, 27.11. 13:00 1026 - 1,5
So, 27.11. 12:30 1027 - 1,2
So, 27.11. 12:00 1027 - 1,0
Ortszeit Schneehöhe (cm)
So, 27.11. 13:00 0
So, 27.11. 7:00 0
So, 27.11. 1:00 0
Sa, 26.11. 19:00 0
Sa, 26.11. 13:00 0
Sa, 26.11. 7:00 0
Sa, 26.11. 1:00 0
Fr, 25.11. 19:00 0
Ortszeit Schneehöhe (cm)
So, 27.11. 15:00 0
So, 27.11. 14:50 0
So, 27.11. 14:40 0
So, 27.11. 14:30 0
So, 27.11. 14:20 0
So, 27.11. 14:10 0
So, 27.11. 14:00 0
So, 27.11. 13:30 0
So, 27.11. 13:00 0
So, 27.11. 12:30 0
So, 27.11. 12:00 0
Link zu dieser Seite / Seite empfehlen

Das Wetter in ...